sensor_id;sensor_type;location;lat;lon;timestamp;P1;durP1;ratioP1;P2;durP2;ratioP2
8958;SDS011;4514;49.476;8.484;2024-02-15T00:01:35;5.20;;;4.60;;
8958;SDS011;4514;49.476;8.484;2024-02-15T00:04:21;4.68;;;4.10;;
8958;SDS011;4514;49.476;8.484;2024-02-15T00:07:06;4.30;;;3.90;;
8958;SDS011;4514;49.476;8.484;2024-02-15T00:09:52;4.50;;;4.10;;
8958;SDS011;4514;49.476;8.484;2024-02-15T00:12:39;11.15;;;7.60;;
8958;SDS011;4514;49.476;8.484;2024-02-15T00:15:24;5.50;;;4.70;;
8958;SDS011;4514;49.476;8.484;2024-02-15T00:18:12;5.03;;;4.18;;
8958;SDS011;4514;49.476;8.484;2024-02-15T00:20:58;5.68;;;3.75;;
8958;SDS011;4514;49.476;8.484;2024-02-15T00:23:45;5.53;;;4.00;;
8958;SDS011;4514;49.476;8.484;2024-02-15T00:26:31;7.38;;;4.32;;
8958;SDS011;4514;49.476;8.484;2024-02-15T00:29:17;5.32;;;3.90;;
8958;SDS011;4514;49.476;8.484;2024-02-15T00:32:03;9.02;;;6.00;;
8958;SDS011;4514;49.476;8.484;2024-02-15T00:34:51;7.43;;;5.22;;
8958;SDS011;4514;49.476;8.484;2024-02-15T00:37:37;8.65;;;4.03;;
8958;SDS011;4514;49.476;8.484;2024-02-15T00:40:23;5.50;;;3.30;;
8958;SDS011;4514;49.476;8.484;2024-02-15T00:43:08;5.90;;;3.97;;
8958;SDS011;4514;49.476;8.484;2024-02-15T00:45:57;4.28;;;3.50;;
8958;SDS011;4514;49.476;8.484;2024-02-15T00:48:42;6.03;;;3.72;;
8958;SDS011;4514;49.476;8.484;2024-02-15T00:51:28;5.47;;;3.63;;
8958;SDS011;4514;49.476;8.484;2024-02-15T00:54:14;4.72;;;3.60;;
8958;SDS011;4514;49.476;8.484;2024-02-15T00:56:59;7.53;;;3.50;;
8958;SDS011;4514;49.476;8.484;2024-02-15T00:59:48;5.03;;;3.60;;
8958;SDS011;4514;49.476;8.484;2024-02-15T01:02:33;4.70;;;3.30;;
8958;SDS011;4514;49.476;8.484;2024-02-15T01:05:21;5.40;;;3.47;;
8958;SDS011;4514;49.476;8.484;2024-02-15T01:08:07;6.78;;;3.60;;
8958;SDS011;4514;49.476;8.484;2024-02-15T01:10:56;5.30;;;3.75;;
8958;SDS011;4514;49.476;8.484;2024-02-15T01:13:42;4.50;;;3.60;;
8958;SDS011;4514;49.476;8.484;2024-02-15T01:16:29;5.10;;;3.35;;
8958;SDS011;4514;49.476;8.484;2024-02-15T01:19:15;7.30;;;4.53;;
8958;SDS011;4514;49.476;8.484;2024-02-15T01:22:01;4.65;;;3.80;;
8958;SDS011;4514;49.476;8.484;2024-02-15T01:24:48;5.22;;;3.88;;
8958;SDS011;4514;49.476;8.484;2024-02-15T01:27:33;4.20;;;3.22;;
8958;SDS011;4514;49.476;8.484;2024-02-15T01:30:19;3.92;;;3.40;;
8958;SDS011;4514;49.476;8.484;2024-02-15T01:33:05;4.95;;;3.67;;
8958;SDS011;4514;49.476;8.484;2024-02-15T01:35:51;5.93;;;3.53;;
8958;SDS011;4514;49.476;8.484;2024-02-15T01:38:36;6.90;;;3.60;;
8958;SDS011;4514;49.476;8.484;2024-02-15T01:41:22;5.15;;;3.55;;
8958;SDS011;4514;49.476;8.484;2024-02-15T01:44:11;5.85;;;3.58;;
8958;SDS011;4514;49.476;8.484;2024-02-15T01:47:01;5.25;;;3.55;;
8958;SDS011;4514;49.476;8.484;2024-02-15T01:49:47;4.93;;;3.53;;
8958;SDS011;4514;49.476;8.484;2024-02-15T01:52:34;5.18;;;3.63;;
8958;SDS011;4514;49.476;8.484;2024-02-15T01:55:20;5.50;;;3.70;;
8958;SDS011;4514;49.476;8.484;2024-02-15T01:58:07;6.20;;;3.90;;
8958;SDS011;4514;49.476;8.484;2024-02-15T02:00:55;4.97;;;3.78;;
8958;SDS011;4514;49.476;8.484;2024-02-15T02:03:42;5.72;;;3.90;;
8958;SDS011;4514;49.476;8.484;2024-02-15T02:06:27;3.67;;;3.35;;
8958;SDS011;4514;49.476;8.484;2024-02-15T02:09:13;6.85;;;3.78;;
8958;SDS011;4514;49.476;8.484;2024-02-15T02:12:00;6.03;;;3.58;;
8958;SDS011;4514;49.476;8.484;2024-02-15T02:14:45;4.57;;;3.40;;
8958;SDS011;4514;49.476;8.484;2024-02-15T02:17:31;5.15;;;3.40;;
8958;SDS011;4514;49.476;8.484;2024-02-15T02:20:17;5.72;;;3.35;;
8958;SDS011;4514;49.476;8.484;2024-02-15T02:23:05;4.78;;;3.10;;
8958;SDS011;4514;49.476;8.484;2024-02-15T02:25:52;4.93;;;3.50;;
8958;SDS011;4514;49.476;8.484;2024-02-15T02:28:40;5.63;;;3.10;;
8958;SDS011;4514;49.476;8.484;2024-02-15T02:31:25;3.88;;;3.20;;
8958;SDS011;4514;49.476;8.484;2024-02-15T02:34:11;5.28;;;3.30;;
8958;SDS011;4514;49.476;8.484;2024-02-15T02:36:59;5.63;;;3.50;;
8958;SDS011;4514;49.476;8.484;2024-02-15T02:39:46;5.68;;;3.33;;
8958;SDS011;4514;49.476;8.484;2024-02-15T02:42:32;4.97;;;3.53;;
8958;SDS011;4514;49.476;8.484;2024-02-15T02:45:18;5.63;;;3.28;;
8958;SDS011;4514;49.476;8.484;2024-02-15T02:48:07;6.22;;;3.70;;
8958;SDS011;4514;49.476;8.484;2024-02-15T02:50:53;4.80;;;3.92;;
8958;SDS011;4514;49.476;8.484;2024-02-15T02:53:39;6.93;;;4.32;;
8958;SDS011;4514;49.476;8.484;2024-02-15T02:56:25;5.75;;;4.40;;
8958;SDS011;4514;49.476;8.484;2024-02-15T02:59:10;7.05;;;5.00;;
8958;SDS011;4514;49.476;8.484;2024-02-15T03:01:56;6.70;;;5.20;;
8958;SDS011;4514;49.476;8.484;2024-02-15T03:04:45;6.65;;;5.85;;
8958;SDS011;4514;49.476;8.484;2024-02-15T03:07:34;6.53;;;5.93;;
8958;SDS011;4514;49.476;8.484;2024-02-15T03:10:20;8.93;;;6.03;;
8958;SDS011;4514;49.476;8.484;2024-02-15T03:13:08;6.88;;;5.40;;
8958;SDS011;4514;49.476;8.484;2024-02-15T03:15:54;8.23;;;5.78;;
8958;SDS011;4514;49.476;8.484;2024-02-15T03:18:40;6.05;;;5.15;;
8958;SDS011;4514;49.476;8.484;2024-02-15T03:21:26;7.28;;;5.30;;
8958;SDS011;4514;49.476;8.484;2024-02-15T03:24:12;9.25;;;5.65;;
8958;SDS011;4514;49.476;8.484;2024-02-15T03:26:58;8.82;;;4.93;;
8958;SDS011;4514;49.476;8.484;2024-02-15T03:29:44;8.05;;;5.05;;
8958;SDS011;4514;49.476;8.484;2024-02-15T03:32:29;4.85;;;4.43;;
8958;SDS011;4514;49.476;8.484;2024-02-15T03:35:15;6.57;;;5.10;;
8958;SDS011;4514;49.476;8.484;2024-02-15T03:38:02;6.40;;;5.15;;
8958;SDS011;4514;49.476;8.484;2024-02-15T03:40:47;8.73;;;5.00;;
8958;SDS011;4514;49.476;8.484;2024-02-15T03:43:33;9.65;;;5.15;;
8958;SDS011;4514;49.476;8.484;2024-02-15T03:46:19;6.10;;;4.72;;
8958;SDS011;4514;49.476;8.484;2024-02-15T03:49:09;6.75;;;4.90;;
8958;SDS011;4514;49.476;8.484;2024-02-15T03:51:56;5.88;;;5.10;;
8958;SDS011;4514;49.476;8.484;2024-02-15T03:54:44;7.20;;;5.30;;
8958;SDS011;4514;49.476;8.484;2024-02-15T03:57:29;6.70;;;5.15;;
8958;SDS011;4514;49.476;8.484;2024-02-15T04:00:15;9.07;;;5.50;;
8958;SDS011;4514;49.476;8.484;2024-02-15T04:03:05;7.07;;;5.20;;
8958;SDS011;4514;49.476;8.484;2024-02-15T04:05:51;8.27;;;5.00;;
8958;SDS011;4514;49.476;8.484;2024-02-15T04:08:38;6.70;;;4.60;;
8958;SDS011;4514;49.476;8.484;2024-02-15T04:11:24;6.78;;;4.50;;
8958;SDS011;4514;49.476;8.484;2024-02-15T04:14:10;6.43;;;4.68;;
8958;SDS011;4514;49.476;8.484;2024-02-15T04:16:56;6.43;;;4.18;;
8958;SDS011;4514;49.476;8.484;2024-02-15T04:19:46;5.65;;;4.32;;
8958;SDS011;4514;49.476;8.484;2024-02-15T04:22:39;5.57;;;4.40;;
8958;SDS011;4514;49.476;8.484;2024-02-15T04:25:27;6.85;;;4.45;;
8958;SDS011;4514;49.476;8.484;2024-02-15T04:28:16;6.63;;;4.03;;
8958;SDS011;4514;49.476;8.484;2024-02-15T04:31:02;4.60;;;4.20;;
8958;SDS011;4514;49.476;8.484;2024-02-15T04:33:48;6.78;;;4.65;;
8958;SDS011;4514;49.476;8.484;2024-02-15T04:36:36;7.57;;;5.00;;
8958;SDS011;4514;49.476;8.484;2024-02-15T04:39:22;4.95;;;4.45;;
8958;SDS011;4514;49.476;8.484;2024-02-15T04:42:12;7.97;;;4.75;;
8958;SDS011;4514;49.476;8.484;2024-02-15T04:44:58;7.03;;;5.10;;
8958;SDS011;4514;49.476;8.484;2024-02-15T04:47:44;7.25;;;5.18;;
8958;SDS011;4514;49.476;8.484;2024-02-15T04:50:34;7.68;;;5.05;;
8958;SDS011;4514;49.476;8.484;2024-02-15T04:53:21;5.70;;;4.93;;
8958;SDS011;4514;49.476;8.484;2024-02-15T04:56:07;6.28;;;4.95;;
8958;SDS011;4514;49.476;8.484;2024-02-15T04:58:59;6.90;;;5.00;;
8958;SDS011;4514;49.476;8.484;2024-02-15T05:01:44;4.35;;;3.95;;
8958;SDS011;4514;49.476;8.484;2024-02-15T05:04:30;8.10;;;3.78;;
8958;SDS011;4514;49.476;8.484;2024-02-15T05:07:21;4.20;;;3.67;;
8958;SDS011;4514;49.476;8.484;2024-02-15T05:10:08;5.50;;;3.58;;
8958;SDS011;4514;49.476;8.484;2024-02-15T05:12:55;6.13;;;3.40;;
8958;SDS011;4514;49.476;8.484;2024-02-15T05:15:41;4.57;;;3.20;;
8958;SDS011;4514;49.476;8.484;2024-02-15T05:18:26;4.05;;;3.28;;
8958;SDS011;4514;49.476;8.484;2024-02-15T05:21:12;5.72;;;4.22;;
8958;SDS011;4514;49.476;8.484;2024-02-15T05:23:58;7.97;;;6.57;;
8958;SDS011;4514;49.476;8.484;2024-02-15T05:26:46;9.68;;;8.20;;
8958;SDS011;4514;49.476;8.484;2024-02-15T05:29:32;10.10;;;8.43;;
8958;SDS011;4514;49.476;8.484;2024-02-15T05:32:21;12.63;;;9.15;;
8958;SDS011;4514;49.476;8.484;2024-02-15T05:35:08;10.80;;;9.43;;
8958;SDS011;4514;49.476;8.484;2024-02-15T05:37:57;11.02;;;9.93;;
8958;SDS011;4514;49.476;8.484;2024-02-15T05:40:43;11.38;;;10.27;;
8958;SDS011;4514;49.476;8.484;2024-02-15T05:43:29;13.15;;;9.60;;
8958;SDS011;4514;49.476;8.484;2024-02-15T05:46:15;12.32;;;9.18;;
8958;SDS011;4514;49.476;8.484;2024-02-15T05:49:01;9.77;;;8.40;;
8958;SDS011;4514;49.476;8.484;2024-02-15T05:51:49;11.05;;;8.85;;
8958;SDS011;4514;49.476;8.484;2024-02-15T05:54:35;11.20;;;8.80;;
8958;SDS011;4514;49.476;8.484;2024-02-15T05:57:21;11.57;;;8.68;;
8958;SDS011;4514;49.476;8.484;2024-02-15T06:00:07;8.38;;;6.72;;
8958;SDS011;4514;49.476;8.484;2024-02-15T06:02:58;6.90;;;5.97;;
8958;SDS011;4514;49.476;8.484;2024-02-15T06:05:44;9.82;;;6.10;;
8958;SDS011;4514;49.476;8.484;2024-02-15T06:08:30;8.50;;;6.32;;
8958;SDS011;4514;49.476;8.484;2024-02-15T06:11:18;9.57;;;7.78;;
8958;SDS011;4514;49.476;8.484;2024-02-15T06:14:05;10.27;;;7.72;;
8958;SDS011;4514;49.476;8.484;2024-02-15T06:16:52;9.90;;;7.53;;
8958;SDS011;4514;49.476;8.484;2024-02-15T06:19:40;15.02;;;12.60;;
8958;SDS011;4514;49.476;8.484;2024-02-15T06:22:26;18.58;;;16.35;;
8958;SDS011;4514;49.476;8.484;2024-02-15T06:25:12;10.25;;;6.97;;
8958;SDS011;4514;49.476;8.484;2024-02-15T06:28:05;8.20;;;6.38;;
8958;SDS011;4514;49.476;8.484;2024-02-15T06:30:58;10.38;;;6.40;;
8958;SDS011;4514;49.476;8.484;2024-02-15T06:34:03;7.57;;;5.30;;
8958;SDS011;4514;49.476;8.484;2024-02-15T06:37:07;9.90;;;5.18;;
8958;SDS011;4514;49.476;8.484;2024-02-15T06:40:11;7.55;;;5.18;;
8958;SDS011;4514;49.476;8.484;2024-02-15T06:42:58;7.68;;;5.50;;
8958;SDS011;4514;49.476;8.484;2024-02-15T06:45:44;6.55;;;4.82;;
8958;SDS011;4514;49.476;8.484;2024-02-15T06:48:32;11.05;;;5.60;;
8958;SDS011;4514;49.476;8.484;2024-02-15T06:51:20;10.20;;;5.15;;
8958;SDS011;4514;49.476;8.484;2024-02-15T06:54:06;7.50;;;4.82;;
8958;SDS011;4514;49.476;8.484;2024-02-15T06:56:52;9.63;;;5.40;;
8958;SDS011;4514;49.476;8.484;2024-02-15T06:59:39;7.63;;;5.25;;
8958;SDS011;4514;49.476;8.484;2024-02-15T07:02:25;8.60;;;5.70;;
8958;SDS011;4514;49.476;8.484;2024-02-15T07:05:11;7.63;;;5.40;;
8958;SDS011;4514;49.476;8.484;2024-02-15T07:07:59;8.15;;;5.72;;
8958;SDS011;4514;49.476;8.484;2024-02-15T07:10:46;8.95;;;6.32;;
8958;SDS011;4514;49.476;8.484;2024-02-15T07:13:31;9.05;;;6.10;;
8958;SDS011;4514;49.476;8.484;2024-02-15T07:16:17;9.43;;;6.10;;
8958;SDS011;4514;49.476;8.484;2024-02-15T07:19:03;8.25;;;5.88;;
8958;SDS011;4514;49.476;8.484;2024-02-15T07:21:49;9.20;;;5.35;;
8958;SDS011;4514;49.476;8.484;2024-02-15T07:24:36;9.23;;;5.22;;
8958;SDS011;4514;49.476;8.484;2024-02-15T07:27:23;7.63;;;4.75;;
8958;SDS011;4514;49.476;8.484;2024-02-15T07:30:11;7.20;;;4.28;;
8958;SDS011;4514;49.476;8.484;2024-02-15T07:32:57;7.85;;;4.82;;
8958;SDS011;4514;49.476;8.484;2024-02-15T07:35:45;5.28;;;4.38;;
8958;SDS011;4514;49.476;8.484;2024-02-15T07:38:31;7.82;;;4.85;;
8958;SDS011;4514;49.476;8.484;2024-02-15T07:41:23;6.57;;;4.55;;
8958;SDS011;4514;49.476;8.484;2024-02-15T07:44:09;6.78;;;4.55;;
8958;SDS011;4514;49.476;8.484;2024-02-15T07:46:56;7.28;;;4.90;;
8958;SDS011;4514;49.476;8.484;2024-02-15T07:49:41;7.95;;;4.75;;
8958;SDS011;4514;49.476;8.484;2024-02-15T07:52:28;6.22;;;4.45;;
8958;SDS011;4514;49.476;8.484;2024-02-15T07:55:14;7.28;;;4.65;;
8958;SDS011;4514;49.476;8.484;2024-02-15T07:58:00;5.35;;;4.43;;
8958;SDS011;4514;49.476;8.484;2024-02-15T08:00:47;7.20;;;4.60;;
8958;SDS011;4514;49.476;8.484;2024-02-15T08:03:32;9.60;;;4.75;;
8958;SDS011;4514;49.476;8.484;2024-02-15T08:06:20;9.35;;;4.40;;
8958;SDS011;4514;49.476;8.484;2024-02-15T08:09:06;7.38;;;4.25;;
8958;SDS011;4514;49.476;8.484;2024-02-15T08:11:52;9.07;;;4.18;;
8958;SDS011;4514;49.476;8.484;2024-02-15T08:14:37;7.65;;;4.57;;
8958;SDS011;4514;49.476;8.484;2024-02-15T08:17:25;9.27;;;4.90;;
8958;SDS011;4514;49.476;8.484;2024-02-15T08:20:12;7.72;;;5.50;;
8958;SDS011;4514;49.476;8.484;2024-02-15T08:22:58;7.38;;;5.20;;
8958;SDS011;4514;49.476;8.484;2024-02-15T08:25:44;8.55;;;5.97;;
8958;SDS011;4514;49.476;8.484;2024-02-15T08:28:30;12.75;;;6.07;;
8958;SDS011;4514;49.476;8.484;2024-02-15T08:31:15;8.60;;;5.70;;
8958;SDS011;4514;49.476;8.484;2024-02-15T08:34:04;6.65;;;5.53;;
8958;SDS011;4514;49.476;8.484;2024-02-15T08:36:55;6.93;;;5.40;;
8958;SDS011;4514;49.476;8.484;2024-02-15T08:39:43;7.15;;;4.90;;
8958;SDS011;4514;49.476;8.484;2024-02-15T08:42:30;8.43;;;5.60;;
8958;SDS011;4514;49.476;8.484;2024-02-15T08:45:16;6.47;;;5.18;;
8958;SDS011;4514;49.476;8.484;2024-02-15T08:48:01;7.75;;;5.10;;
8958;SDS011;4514;49.476;8.484;2024-02-15T08:50:50;5.82;;;4.55;;
8958;SDS011;4514;49.476;8.484;2024-02-15T08:53:36;5.15;;;3.75;;
8958;SDS011;4514;49.476;8.484;2024-02-15T08:56:22;7.03;;;4.38;;
8958;SDS011;4514;49.476;8.484;2024-02-15T08:59:08;5.47;;;4.07;;
8958;SDS011;4514;49.476;8.484;2024-02-15T09:01:55;6.10;;;4.82;;
8958;SDS011;4514;49.476;8.484;2024-02-15T09:04:41;6.30;;;4.53;;
8958;SDS011;4514;49.476;8.484;2024-02-15T09:07:27;13.27;;;7.28;;
8958;SDS011;4514;49.476;8.484;2024-02-15T09:10:15;7.47;;;6.00;;
8958;SDS011;4514;49.476;8.484;2024-02-15T09:13:04;7.45;;;4.93;;
8958;SDS011;4514;49.476;8.484;2024-02-15T09:15:51;9.18;;;7.03;;
8958;SDS011;4514;49.476;8.484;2024-02-15T09:18:37;14.13;;;7.85;;
8958;SDS011;4514;49.476;8.484;2024-02-15T09:21:23;20.42;;;12.60;;
8958;SDS011;4514;49.476;8.484;2024-02-15T09:24:10;10.52;;;8.02;;
8958;SDS011;4514;49.476;8.484;2024-02-15T09:26:56;8.80;;;7.00;;
8958;SDS011;4514;49.476;8.484;2024-02-15T09:29:42;5.22;;;3.45;;
8958;SDS011;4514;49.476;8.484;2024-02-15T09:32:28;7.53;;;4.50;;
8958;SDS011;4514;49.476;8.484;2024-02-15T09:35:16;4.57;;;3.55;;
8958;SDS011;4514;49.476;8.484;2024-02-15T09:38:02;6.65;;;3.45;;
8958;SDS011;4514;49.476;8.484;2024-02-15T09:40:50;4.70;;;2.95;;
8958;SDS011;4514;49.476;8.484;2024-02-15T09:43:37;7.00;;;3.60;;
8958;SDS011;4514;49.476;8.484;2024-02-15T09:46:23;6.28;;;3.38;;
8958;SDS011;4514;49.476;8.484;2024-02-15T09:49:09;11.70;;;3.60;;
8958;SDS011;4514;49.476;8.484;2024-02-15T09:51:55;4.65;;;3.15;;
8958;SDS011;4514;49.476;8.484;2024-02-15T09:54:42;4.07;;;2.97;;
8958;SDS011;4514;49.476;8.484;2024-02-15T09:57:29;4.97;;;3.20;;
8958;SDS011;4514;49.476;8.484;2024-02-15T10:00:18;3.75;;;2.95;;
8958;SDS011;4514;49.476;8.484;2024-02-15T10:03:05;7.65;;;3.95;;
8958;SDS011;4514;49.476;8.484;2024-02-15T10:05:51;7.40;;;3.78;;
8958;SDS011;4514;49.476;8.484;2024-02-15T10:08:37;9.85;;;6.93;;
8958;SDS011;4514;49.476;8.484;2024-02-15T10:11:23;7.13;;;3.17;;
8958;SDS011;4514;49.476;8.484;2024-02-15T10:14:10;4.60;;;3.17;;
8958;SDS011;4514;49.476;8.484;2024-02-15T10:17:05;6.15;;;3.60;;
8958;SDS011;4514;49.476;8.484;2024-02-15T10:20:04;7.80;;;3.55;;
8958;SDS011;4514;49.476;8.484;2024-02-15T10:25:47;6.40;;;3.38;;
8958;SDS011;4514;49.476;8.484;2024-02-15T10:28:35;11.55;;;8.05;;
8958;SDS011;4514;49.476;8.484;2024-02-15T10:31:21;4.70;;;3.55;;
8958;SDS011;4514;49.476;8.484;2024-02-15T10:34:08;4.13;;;3.08;;
8958;SDS011;4514;49.476;8.484;2024-02-15T10:36:54;4.70;;;4.28;;
8958;SDS011;4514;49.476;8.484;2024-02-15T10:39:43;8.95;;;5.88;;
8958;SDS011;4514;49.476;8.484;2024-02-15T10:42:28;3.58;;;2.40;;
8958;SDS011;4514;49.476;8.484;2024-02-15T10:45:15;3.28;;;2.20;;
8958;SDS011;4514;49.476;8.484;2024-02-15T10:48:05;20.77;;;18.58;;
8958;SDS011;4514;49.476;8.484;2024-02-15T10:50:53;7.90;;;2.97;;
8958;SDS011;4514;49.476;8.484;2024-02-15T10:53:39;4.25;;;2.47;;
8958;SDS011;4514;49.476;8.484;2024-02-15T10:56:36;3.72;;;2.22;;
8958;SDS011;4514;49.476;8.484;2024-02-15T10:59:23;3.75;;;1.77;;
8958;SDS011;4514;49.476;8.484;2024-02-15T11:05:16;29.95;;;27.20;;
8958;SDS011;4514;49.476;8.484;2024-02-15T11:08:07;13.43;;;11.73;;
8958;SDS011;4514;49.476;8.484;2024-02-15T11:10:53;7.00;;;4.88;;
8958;SDS011;4514;49.476;8.484;2024-02-15T11:13:44;4.95;;;3.83;;
8958;SDS011;4514;49.476;8.484;2024-02-15T11:16:39;5.25;;;2.75;;
8958;SDS011;4514;49.476;8.484;2024-02-15T11:22:21;6.35;;;2.30;;
8958;SDS011;4514;49.476;8.484;2024-02-15T11:25:08;4.85;;;2.13;;
8958;SDS011;4514;49.476;8.484;2024-02-15T11:27:56;5.35;;;2.65;;
8958;SDS011;4514;49.476;8.484;2024-02-15T11:30:45;3.20;;;2.10;;
8958;SDS011;4514;49.476;8.484;2024-02-15T11:33:31;4.50;;;2.03;;
8958;SDS011;4514;49.476;8.484;2024-02-15T11:36:20;4.88;;;2.00;;
8958;SDS011;4514;49.476;8.484;2024-02-15T11:42:28;4.72;;;2.45;;
8958;SDS011;4514;49.476;8.484;2024-02-15T11:45:14;3.83;;;2.50;;
8958;SDS011;4514;49.476;8.484;2024-02-15T11:48:05;5.03;;;1.92;;
8958;SDS011;4514;49.476;8.484;2024-02-15T11:50:56;3.42;;;2.17;;
8958;SDS011;4514;49.476;8.484;2024-02-15T11:53:41;5.20;;;2.25;;
8958;SDS011;4514;49.476;8.484;2024-02-15T11:56:28;5.05;;;1.88;;
8958;SDS011;4514;49.476;8.484;2024-02-15T11:59:13;5.15;;;1.98;;
8958;SDS011;4514;49.476;8.484;2024-02-15T12:02:25;4.30;;;2.03;;
8958;SDS011;4514;49.476;8.484;2024-02-15T12:05:32;4.30;;;2.15;;
8958;SDS011;4514;49.476;8.484;2024-02-15T12:08:36;3.78;;;1.95;;
8958;SDS011;4514;49.476;8.484;2024-02-15T12:11:41;4.70;;;1.98;;
8958;SDS011;4514;49.476;8.484;2024-02-15T12:14:45;4.97;;;2.38;;
8958;SDS011;4514;49.476;8.484;2024-02-15T12:17:49;3.78;;;2.10;;
8958;SDS011;4514;49.476;8.484;2024-02-15T12:20:54;2.88;;;2.03;;
8958;SDS011;4514;49.476;8.484;2024-02-15T12:23:42;3.92;;;2.05;;
8958;SDS011;4514;49.476;8.484;2024-02-15T12:26:28;4.63;;;1.90;;
8958;SDS011;4514;49.476;8.484;2024-02-15T12:29:17;5.03;;;2.20;;
8958;SDS011;4514;49.476;8.484;2024-02-15T12:32:03;3.55;;;1.80;;
8958;SDS011;4514;49.476;8.484;2024-02-15T12:34:49;7.82;;;1.67;;
8958;SDS011;4514;49.476;8.484;2024-02-15T12:37:36;3.72;;;2.30;;
8958;SDS011;4514;49.476;8.484;2024-02-15T12:40:22;3.70;;;1.90;;
8958;SDS011;4514;49.476;8.484;2024-02-15T12:43:09;2.63;;;1.70;;
8958;SDS011;4514;49.476;8.484;2024-02-15T12:45:57;3.42;;;1.75;;
8958;SDS011;4514;49.476;8.484;2024-02-15T12:48:47;11.48;;;9.95;;
8958;SDS011;4514;49.476;8.484;2024-02-15T12:51:34;3.85;;;2.10;;
8958;SDS011;4514;49.476;8.484;2024-02-15T12:54:23;8.05;;;5.70;;
8958;SDS011;4514;49.476;8.484;2024-02-15T12:57:11;3.30;;;1.90;;
8958;SDS011;4514;49.476;8.484;2024-02-15T12:59:59;4.00;;;2.40;;
8958;SDS011;4514;49.476;8.484;2024-02-15T13:02:45;4.18;;;2.08;;
8958;SDS011;4514;49.476;8.484;2024-02-15T13:05:34;3.72;;;2.05;;
8958;SDS011;4514;49.476;8.484;2024-02-15T13:08:21;3.97;;;2.13;;
8958;SDS011;4514;49.476;8.484;2024-02-15T13:11:08;4.53;;;1.98;;
8958;SDS011;4514;49.476;8.484;2024-02-15T13:13:58;4.28;;;1.90;;
8958;SDS011;4514;49.476;8.484;2024-02-15T13:16:43;3.35;;;1.77;;
8958;SDS011;4514;49.476;8.484;2024-02-15T13:19:32;3.40;;;1.95;;
8958;SDS011;4514;49.476;8.484;2024-02-15T13:22:21;3.22;;;1.92;;
8958;SDS011;4514;49.476;8.484;2024-02-15T13:25:07;3.55;;;1.60;;
8958;SDS011;4514;49.476;8.484;2024-02-15T13:27:57;5.82;;;2.08;;
8958;SDS011;4514;49.476;8.484;2024-02-15T13:30:44;3.03;;;1.70;;
8958;SDS011;4514;49.476;8.484;2024-02-15T13:33:30;2.78;;;1.58;;
8958;SDS011;4514;49.476;8.484;2024-02-15T13:36:17;4.50;;;1.70;;
8958;SDS011;4514;49.476;8.484;2024-02-15T13:39:05;5.03;;;2.80;;
8958;SDS011;4514;49.476;8.484;2024-02-15T13:41:50;6.05;;;4.30;;
8958;SDS011;4514;49.476;8.484;2024-02-15T13:44:37;14.23;;;12.75;;
8958;SDS011;4514;49.476;8.484;2024-02-15T13:47:23;1.85;;;1.45;;
8958;SDS011;4514;49.476;8.484;2024-02-15T13:50:09;3.15;;;1.40;;
8958;SDS011;4514;49.476;8.484;2024-02-15T13:52:55;3.22;;;1.30;;
8958;SDS011;4514;49.476;8.484;2024-02-15T13:55:41;3.15;;;1.50;;
8958;SDS011;4514;49.476;8.484;2024-02-15T13:58:27;10.40;;;9.40;;
8958;SDS011;4514;49.476;8.484;2024-02-15T14:01:13;4.28;;;2.83;;
8958;SDS011;4514;49.476;8.484;2024-02-15T14:03:59;2.08;;;1.40;;
8958;SDS011;4514;49.476;8.484;2024-02-15T14:06:47;3.60;;;1.38;;
8958;SDS011;4514;49.476;8.484;2024-02-15T14:09:33;1.83;;;1.50;;
8958;SDS011;4514;49.476;8.484;2024-02-15T14:12:19;2.63;;;1.30;;
8958;SDS011;4514;49.476;8.484;2024-02-15T14:15:05;4.43;;;1.52;;
8958;SDS011;4514;49.476;8.484;2024-02-15T14:17:52;2.65;;;1.42;;
8958;SDS011;4514;49.476;8.484;2024-02-15T14:20:38;3.42;;;1.40;;
8958;SDS011;4514;49.476;8.484;2024-02-15T14:23:23;3.13;;;1.75;;
8958;SDS011;4514;49.476;8.484;2024-02-15T14:26:12;3.13;;;1.58;;
8958;SDS011;4514;49.476;8.484;2024-02-15T14:28:58;3.35;;;1.20;;
8958;SDS011;4514;49.476;8.484;2024-02-15T14:31:47;1.95;;;1.40;;
8958;SDS011;4514;49.476;8.484;2024-02-15T14:34:53;5.45;;;2.17;;
8958;SDS011;4514;49.476;8.484;2024-02-15T14:37:40;7.38;;;5.72;;
8958;SDS011;4514;49.476;8.484;2024-02-15T14:40:27;24.63;;;22.33;;
8958;SDS011;4514;49.476;8.484;2024-02-15T14:43:14;14.82;;;13.40;;
8958;SDS011;4514;49.476;8.484;2024-02-15T14:46:00;10.27;;;9.30;;
8958;SDS011;4514;49.476;8.484;2024-02-15T14:48:50;1.55;;;1.30;;
8958;SDS011;4514;49.476;8.484;2024-02-15T14:51:36;3.85;;;1.63;;
8958;SDS011;4514;49.476;8.484;2024-02-15T14:54:22;2.58;;;1.52;;
8958;SDS011;4514;49.476;8.484;2024-02-15T14:57:08;5.72;;;2.00;;
8958;SDS011;4514;49.476;8.484;2024-02-15T14:59:54;4.10;;;2.08;;
8958;SDS011;4514;49.476;8.484;2024-02-15T15:02:40;7.00;;;2.50;;
8958;SDS011;4514;49.476;8.484;2024-02-15T15:05:29;3.13;;;2.60;;
8958;SDS011;4514;49.476;8.484;2024-02-15T15:08:34;4.78;;;2.70;;
8958;SDS011;4514;49.476;8.484;2024-02-15T15:11:38;4.35;;;2.45;;
8958;SDS011;4514;49.476;8.484;2024-02-15T15:14:42;3.47;;;1.95;;
8958;SDS011;4514;49.476;8.484;2024-02-15T15:17:30;4.53;;;2.70;;
8958;SDS011;4514;49.476;8.484;2024-02-15T15:20:16;2.97;;;1.90;;
8958;SDS011;4514;49.476;8.484;2024-02-15T15:23:02;2.70;;;1.88;;
8958;SDS011;4514;49.476;8.484;2024-02-15T15:25:49;4.00;;;1.90;;
8958;SDS011;4514;49.476;8.484;2024-02-15T15:28:35;3.83;;;1.58;;
8958;SDS011;4514;49.476;8.484;2024-02-15T15:31:21;4.05;;;1.80;;
8958;SDS011;4514;49.476;8.484;2024-02-15T15:34:07;52.63;;;47.42;;
8958;SDS011;4514;49.476;8.484;2024-02-15T15:36:52;7.97;;;3.80;;
8958;SDS011;4514;49.476;8.484;2024-02-15T15:39:39;2.35;;;1.80;;
8958;SDS011;4514;49.476;8.484;2024-02-15T15:42:25;5.03;;;2.40;;
8958;SDS011;4514;49.476;8.484;2024-02-15T15:45:13;3.05;;;1.63;;
8958;SDS011;4514;49.476;8.484;2024-02-15T15:48:02;4.88;;;2.13;;
8958;SDS011;4514;49.476;8.484;2024-02-15T15:50:51;5.15;;;2.00;;
8958;SDS011;4514;49.476;8.484;2024-02-15T15:53:38;5.88;;;2.42;;
8958;SDS011;4514;49.476;8.484;2024-02-15T15:56:24;5.75;;;2.45;;
8958;SDS011;4514;49.476;8.484;2024-02-15T15:59:10;5.03;;;2.00;;
8958;SDS011;4514;49.476;8.484;2024-02-15T16:01:55;5.18;;;2.88;;
8958;SDS011;4514;49.476;8.484;2024-02-15T16:04:44;7.38;;;5.20;;
8958;SDS011;4514;49.476;8.484;2024-02-15T16:07:32;4.90;;;2.85;;
8958;SDS011;4514;49.476;8.484;2024-02-15T16:10:18;10.48;;;8.30;;
8958;SDS011;4514;49.476;8.484;2024-02-15T16:13:08;4.82;;;2.28;;
8958;SDS011;4514;49.476;8.484;2024-02-15T16:15:54;39.65;;;20.77;;
8958;SDS011;4514;49.476;8.484;2024-02-15T16:18:41;138.95;;;76.95;;
8958;SDS011;4514;49.476;8.484;2024-02-15T16:21:27;103.85;;;71.15;;
8958;SDS011;4514;49.476;8.484;2024-02-15T16:24:13;191.13;;;123.47;;
8958;SDS011;4514;49.476;8.484;2024-02-15T16:26:59;43.30;;;28.50;;
8958;SDS011;4514;49.476;8.484;2024-02-15T16:29:48;22.73;;;12.40;;
8958;SDS011;4514;49.476;8.484;2024-02-15T16:32:34;6.22;;;4.05;;
8958;SDS011;4514;49.476;8.484;2024-02-15T16:35:23;14.52;;;7.53;;
8958;SDS011;4514;49.476;8.484;2024-02-15T16:38:09;27.15;;;16.45;;
8958;SDS011;4514;49.476;8.484;2024-02-15T16:40:55;25.75;;;16.38;;
8958;SDS011;4514;49.476;8.484;2024-02-15T16:43:41;11.85;;;5.97;;
8958;SDS011;4514;49.476;8.484;2024-02-15T16:46:26;34.03;;;21.05;;
8958;SDS011;4514;49.476;8.484;2024-02-15T16:49:14;20.70;;;12.68;;
8958;SDS011;4514;49.476;8.484;2024-02-15T16:52:00;10.02;;;5.60;;
8958;SDS011;4514;49.476;8.484;2024-02-15T16:54:46;6.53;;;2.83;;
8958;SDS011;4514;49.476;8.484;2024-02-15T16:57:32;4.80;;;2.35;;
8958;SDS011;4514;49.476;8.484;2024-02-15T17:00:19;6.28;;;2.85;;
8958;SDS011;4514;49.476;8.484;2024-02-15T17:03:04;4.78;;;2.80;;
8958;SDS011;4514;49.476;8.484;2024-02-15T17:05:53;7.45;;;3.22;;
8958;SDS011;4514;49.476;8.484;2024-02-15T17:08:39;4.18;;;2.70;;
8958;SDS011;4514;49.476;8.484;2024-02-15T17:11:26;5.95;;;3.42;;
8958;SDS011;4514;49.476;8.484;2024-02-15T17:14:12;6.65;;;4.18;;
8958;SDS011;4514;49.476;8.484;2024-02-15T17:17:02;7.68;;;4.50;;
8958;SDS011;4514;49.476;8.484;2024-02-15T17:19:48;5.65;;;3.00;;
8958;SDS011;4514;49.476;8.484;2024-02-15T17:22:33;7.50;;;4.13;;
8958;SDS011;4514;49.476;8.484;2024-02-15T17:25:19;5.30;;;3.35;;
8958;SDS011;4514;49.476;8.484;2024-02-15T17:28:07;8.95;;;3.92;;
8958;SDS011;4514;49.476;8.484;2024-02-15T17:30:56;22.20;;;17.83;;